Time;durP1;ratioP1;P1;durP2;ratioP2;P2;SDS_P1;SDS_P2;PMS_P1;PMS_P2;Temp;Humidity;BMP_temperature;BMP_pressure;BME280_temperature;BME280_humidity;BME280_pressure;Samples;Min_cycle;Max_cycle;Signal;HPM_P1;HPM_P2
2023/08/18 00:02:08;;;;;;;;;;;16.40;99.90;;;;;;5036676;28;19932;-79
2023/08/18 00:04:33;;;;;;;;;;;16.40;99.90;;;;;;5033790;28;20056;-78
2023/08/18 00:06:59;;;;;;;;;;;16.40;99.90;;;;;;5036216;28;20088;-79
2023/08/18 00:09:24;;;;;;;;;;;16.30;99.90;;;;;;5056097;28;19929;-79
2023/08/18 00:11:50;;;;;;;;;;;16.30;99.90;;;;;;5032917;28;20044;-79
2023/08/18 00:14:16;;;;;;;;;;;16.30;99.90;;;;;;5052420;28;19925;-78
2023/08/18 00:16:41;;;;;;;;;;;16.30;99.90;;;;;;5033291;28;20059;-78
2023/08/18 00:19:07;;;;;;;;;;;16.30;99.90;;;;;;5033007;28;19925;-79
2023/08/18 00:21:32;;;;;;;;;;;16.30;99.90;;;;;;5022147;28;19932;-79
2023/08/18 00:23:58;;;;;;;;;;;16.30;99.90;;;;;;5035440;28;19924;-79
2023/08/18 00:26:24;;;;;;;;;;;16.30;99.90;;;;;;5036786;28;19925;-79
2023/08/18 00:28:49;;;;;;;;;;;16.30;99.90;;;;;;5037782;28;20004;-79
2023/08/18 00:31:15;;;;;;;;;;;16.40;99.90;;;;;;5041384;28;19937;-79
2023/08/18 00:33:40;;;;;;;;;;;16.30;99.90;;;;;;5024478;28;19932;-79
2023/08/18 00:36:06;;;;;;;;;;;16.30;99.90;;;;;;5035526;28;19929;-79
2023/08/18 00:38:32;;;;;;;;;;;16.30;99.90;;;;;;5061217;28;19935;-78
2023/08/18 00:40:57;;;;;;;;;;;16.30;99.90;;;;;;5043333;28;19929;-78
2023/08/18 00:43:23;;;;;;;;;;;16.20;99.90;;;;;;5036942;28;19948;-79
2023/08/18 00:45:49;;;;;;;;;;;16.20;99.90;;;;;;5048920;28;19936;-79
2023/08/18 00:48:15;;;;;;;;;;;16.20;99.90;;;;;;5036621;28;20162;-79
2023/08/18 00:50:42;;;;;;;;;;;16.20;99.90;;;;;;5019667;28;19969;-79
2023/08/18 00:53:08;;;;;;;;;;;16.20;99.90;;;;;;5067880;28;19929;-79
2023/08/18 00:55:34;;;;;;;;;;;16.20;99.90;;;;;;5038621;28;19931;-79
2023/08/18 00:58:00;;;;;;;;;;;16.20;99.90;;;;;;5034625;28;20928;-78
2023/08/18 01:00:26;;;;;;;;;;;16.20;99.90;;;;;;5021469;28;19925;-79
2023/08/18 01:02:52;;;;;;;;;;;16.10;99.90;;;;;;5039438;28;19925;-79
2023/08/18 01:05:18;;;;;;;;;;;16.10;99.90;;;;;;5001608;28;19993;-79
2023/08/18 01:07:44;;;;;;;;;;;16.10;99.90;;;;;;5019963;28;20029;-79
2023/08/18 01:10:10;;;;;;;;;;;16.10;99.90;;;;;;5049941;28;19988;-79
2023/08/18 01:12:45;;;;;;;;;;;16.10;99.90;;;;;;5038575;28;19964;-79
2023/08/18 01:15:19;;;;;;;;;;;16.10;99.90;;;;;;5033825;28;19955;-79
2023/08/18 01:17:53;;;;;;;;;;;16.10;99.90;;;;;;5036869;28;19932;-78
2023/08/18 01:20:19;;;;;;;;;;;16.10;99.90;;;;;;5034946;28;19948;-79
2023/08/18 01:22:47;;;;;;;;;;;16.10;99.90;;;;;;5021162;28;19925;-79
2023/08/18 01:25:13;;;;;;;;;;;16.10;99.90;;;;;;5034653;28;19933;-79
2023/08/18 01:27:38;;;;;;;;;;;16.10;99.90;;;;;;5050574;28;19925;-79
2023/08/18 01:30:04;;;;;;;;;;;16.10;99.90;;;;;;5019745;28;19988;-79
2023/08/18 01:32:43;;;;;;;;;;;16.10;99.90;;;;;;5034458;28;19929;-79
2023/08/18 01:35:10;;;;;;;;;;;16.10;99.90;;;;;;5021770;28;20312;-79
2023/08/18 01:37:36;;;;;;;;;;;16.10;99.90;;;;;;5002386;28;19933;-79
2023/08/18 01:40:03;;;;;;;;;;;16.10;99.90;;;;;;5032631;28;19924;-79
2023/08/18 01:42:29;;;;;;;;;;;16.10;99.90;;;;;;5039247;28;19926;-78
2023/08/18 01:45:02;;;;;;;;;;;16.10;99.90;;;;;;5036853;28;19971;-79
2023/08/18 01:47:28;;;;;;;;;;;16.10;99.90;;;;;;5051891;28;19929;-80
2023/08/18 01:49:54;;;;;;;;;;;16.10;99.90;;;;;;5019028;28;19989;-79
2023/08/18 01:52:19;;;;;;;;;;;16.10;99.90;;;;;;5041991;28;19929;-79
2023/08/18 01:54:45;;;;;;;;;;;16.10;99.90;;;;;;5018696;28;19936;-79
2023/08/18 01:57:11;;;;;;;;;;;16.00;99.90;;;;;;5048304;28;20412;-79
2023/08/18 01:59:36;;;;;;;;;;;16.00;99.90;;;;;;5035829;28;19936;-79
2023/08/18 02:02:02;;;;;;;;;;;16.00;99.90;;;;;;5034639;28;19933;-79
2023/08/18 02:04:27;;;;;;;;;;;16.00;99.90;;;;;;5034413;28;19961;-79
2023/08/18 02:06:53;;;;;;;;;;;16.10;99.90;;;;;;5065695;28;19925;-79
2023/08/18 02:09:18;;;;;;;;;;;16.00;99.90;;;;;;5017085;28;20020;-79
2023/08/18 02:11:44;;;;;;;;;;;16.10;99.90;;;;;;5032458;28;19939;-79
2023/08/18 02:14:09;;;;;;;;;;;16.10;99.90;;;;;;5021143;28;19932;-79
2023/08/18 02:16:35;;;;;;;;;;;16.10;99.90;;;;;;5065561;28;20011;-79
2023/08/18 02:19:01;;;;;;;;;;;16.00;99.90;;;;;;5014350;28;19944;-79
2023/08/18 02:21:30;;;;;;;;;;;16.10;99.90;;;;;;5033913;28;20340;-79
2023/08/18 02:23:56;;;;;;;;;;;16.00;99.90;;;;;;5035542;28;19929;-79
2023/08/18 02:26:21;;;;;;;;;;;16.10;99.90;;;;;;5033361;28;19932;-79
2023/08/18 02:28:47;;;;;;;;;;;16.10;99.90;;;;;;5033703;28;19925;-79
2023/08/18 02:31:12;;;;;;;;;;;16.10;99.90;;;;;;5019325;28;20020;-79
2023/08/18 02:33:38;;;;;;;;;;;16.10;99.90;;;;;;5050119;28;19948;-79
2023/08/18 02:36:04;;;;;;;;;;;16.10;99.90;;;;;;5034924;28;19996;-79
2023/08/18 02:38:30;;;;;;;;;;;16.10;99.90;;;;;;5033714;28;19956;-79
2023/08/18 02:40:55;;;;;;;;;;;16.10;99.90;;;;;;5032449;28;19925;-79
2023/08/18 02:43:22;;;;;;;;;;;16.00;99.90;;;;;;5037300;28;19925;-79
2023/08/18 02:45:47;;;;;;;;;;;16.10;99.90;;;;;;5038677;28;20017;-79
2023/08/18 02:48:13;;;;;;;;;;;16.10;99.90;;;;;;5066457;28;19933;-79
2023/08/18 02:50:39;;;;;;;;;;;16.10;99.90;;;;;;5013765;28;19929;-79
2023/08/18 02:53:06;;;;;;;;;;;16.10;99.90;;;;;;5033398;28;19925;-79
2023/08/18 02:55:34;;;;;;;;;;;16.10;99.90;;;;;;5018914;28;20315;-79
2023/08/18 02:58:00;;;;;;;;;;;16.10;99.90;;;;;;5022755;28;19925;-79
2023/08/18 03:00:26;;;;;;;;;;;16.10;99.90;;;;;;5017866;28;20515;-79
2023/08/18 03:02:52;;;;;;;;;;;16.10;99.90;;;;;;5036530;28;19936;-79
2023/08/18 03:05:17;;;;;;;;;;;16.10;99.90;;;;;;5032909;28;19925;-79
2023/08/18 03:07:43;;;;;;;;;;;16.10;99.90;;;;;;5017698;28;19929;-79
2023/08/18 03:10:09;;;;;;;;;;;16.00;99.90;;;;;;5048584;28;19932;-79
2023/08/18 03:12:34;;;;;;;;;;;16.10;99.90;;;;;;5000375;28;19932;-79
2023/08/18 03:15:00;;;;;;;;;;;16.10;99.90;;;;;;5046324;28;20011;-79
2023/08/18 03:17:25;;;;;;;;;;;16.00;99.90;;;;;;5034146;28;19929;-79
2023/08/18 03:19:51;;;;;;;;;;;16.10;99.90;;;;;;5032518;28;19929;-79
2023/08/18 03:22:17;;;;;;;;;;;16.00;99.90;;;;;;5032816;28;19925;-79
2023/08/18 03:24:42;;;;;;;;;;;16.00;99.90;;;;;;4999957;28;20011;-79
2023/08/18 03:27:08;;;;;;;;;;;16.10;99.90;;;;;;5048884;28;19932;-79
2023/08/18 03:29:33;;;;;;;;;;;16.00;99.90;;;;;;5017492;28;19932;-79
2023/08/18 03:31:59;;;;;;;;;;;16.00;99.90;;;;;;5017999;28;19925;-79
2023/08/18 03:34:25;;;;;;;;;;;16.10;99.90;;;;;;5015380;28;20438;-79
2023/08/18 03:36:50;;;;;;;;;;;16.00;99.90;;;;;;5014791;28;19929;-79
2023/08/18 03:39:16;;;;;;;;;;;16.00;99.90;;;;;;5038381;28;19970;-79
2023/08/18 03:41:41;;;;;;;;;;;16.00;99.90;;;;;;5031419;28;19936;-79
2023/08/18 03:44:07;;;;;;;;;;;16.00;99.90;;;;;;5068420;28;20501;-79
2023/08/18 03:46:33;;;;;;;;;;;16.00;99.90;;;;;;5037045;28;19936;-78
2023/08/18 03:48:59;;;;;;;;;;;16.00;99.90;;;;;;5017372;28;19979;-79
2023/08/18 03:51:25;;;;;;;;;;;16.00;99.90;;;;;;5049391;28;19925;-79
2023/08/18 03:53:51;;;;;;;;;;;16.00;99.90;;;;;;5030919;28;20398;-79
2023/08/18 03:56:16;;;;;;;;;;;15.90;99.90;;;;;;5032916;28;20016;-79
2023/08/18 03:58:42;;;;;;;;;;;15.90;99.90;;;;;;5035507;28;19929;-80
2023/08/18 04:01:08;;;;;;;;;;;15.90;99.90;;;;;;5017542;28;19932;-79
2023/08/18 04:03:35;;;;;;;;;;;15.90;99.90;;;;;;5033527;28;20556;-79
2023/08/18 04:06:00;;;;;;;;;;;15.90;99.90;;;;;;5031512;28;19983;-79
2023/08/18 04:08:26;;;;;;;;;;;16.00;99.90;;;;;;5015571;28;19925;-79
2023/08/18 04:10:52;;;;;;;;;;;16.00;99.90;;;;;;5003249;28;20330;-79
2023/08/18 04:13:17;;;;;;;;;;;16.00;99.90;;;;;;5032829;28;20941;-79
2023/08/18 04:15:43;;;;;;;;;;;16.00;99.90;;;;;;5032740;28;19952;-79
2023/08/18 04:18:08;;;;;;;;;;;16.00;99.90;;;;;;4998507;28;19932;-79
2023/08/18 04:20:35;;;;;;;;;;;16.00;99.90;;;;;;5019502;28;20040;-79
2023/08/18 04:23:01;;;;;;;;;;;16.00;99.90;;;;;;5014882;28;19940;-79
2023/08/18 04:25:26;;;;;;;;;;;16.00;99.90;;;;;;5017749;28;19929;-79
2023/08/18 04:27:52;;;;;;;;;;;16.10;99.90;;;;;;5018603;28;19948;-79
2023/08/18 04:30:17;;;;;;;;;;;16.10;99.90;;;;;;4998963;28;19996;-79
2023/08/18 04:32:43;;;;;;;;;;;16.10;99.90;;;;;;5015842;28;19925;-79
2023/08/18 04:35:09;;;;;;;;;;;16.10;99.90;;;;;;5029582;28;19929;-79
2023/08/18 04:37:34;;;;;;;;;;;16.10;99.90;;;;;;5066765;28;19939;-78
2023/08/18 04:40:00;;;;;;;;;;;16.10;99.90;;;;;;5032925;28;20015;-79
2023/08/18 04:42:25;;;;;;;;;;;16.10;99.90;;;;;;5047745;28;19930;-79
2023/08/18 04:44:51;;;;;;;;;;;16.10;99.90;;;;;;5016693;28;19976;-79
2023/08/18 04:47:17;;;;;;;;;;;16.10;99.90;;;;;;5050455;28;20008;-79
2023/08/18 04:49:43;;;;;;;;;;;16.10;99.90;;;;;;5035562;28;19975;-79
2023/08/18 04:52:10;;;;;;;;;;;16.10;99.90;;;;;;5023905;28;19925;-79
2023/08/18 04:54:35;;;;;;;;;;;16.10;99.90;;;;;;5038900;28;19943;-79
2023/08/18 04:57:03;;;;;;;;;;;16.10;99.90;;;;;;5056821;28;19929;-79
2023/08/18 04:59:29;;;;;;;;;;;16.10;99.90;;;;;;5055707;28;19996;-79
2023/08/18 05:01:54;;;;;;;;;;;16.20;99.90;;;;;;5055337;28;19933;-79
2023/08/18 05:04:20;;;;;;;;;;;16.20;99.90;;;;;;5039880;28;19976;-79
2023/08/18 05:06:46;;;;;;;;;;;16.20;99.90;;;;;;5037849;28;19925;-79
2023/08/18 05:09:11;;;;;;;;;;;16.20;99.90;;;;;;5040480;28;19945;-79
2023/08/18 05:11:37;;;;;;;;;;;16.20;99.90;;;;;;5056161;28;20365;-79
2023/08/18 05:14:03;;;;;;;;;;;16.30;99.90;;;;;;5073285;28;19936;-79
2023/08/18 05:16:28;;;;;;;;;;;16.30;99.90;;;;;;5038791;28;19932;-79
2023/08/18 05:18:54;;;;;;;;;;;16.30;99.90;;;;;;5036586;28;20381;-79
2023/08/18 05:21:19;;;;;;;;;;;16.30;99.90;;;;;;5068351;28;19932;-79
2023/08/18 05:23:45;;;;;;;;;;;16.30;99.90;;;;;;5049123;28;19983;-79
2023/08/18 05:26:11;;;;;;;;;;;16.40;99.90;;;;;;5037143;28;19929;-79
2023/08/18 05:28:36;;;;;;;;;;;16.40;99.90;;;;;;5034343;28;19948;-79
2023/08/18 05:31:02;;;;;;;;;;;16.40;99.90;;;;;;5036407;28;19965;-79
2023/08/18 05:33:27;;;;;;;;;;;16.40;99.90;;;;;;5020914;28;19971;-79
2023/08/18 05:35:56;;;;;;;;;;;16.40;99.90;;;;;;5019621;28;19929;-79
2023/08/18 05:38:22;;;;;;;;;;;16.40;99.90;;;;;;5028864;28;19929;-79
2023/08/18 05:40:50;;;;;;;;;;;16.40;99.90;;;;;;5066037;28;20365;-79
2023/08/18 05:43:18;;;;;;;;;;;16.40;99.90;;;;;;5035312;28;19956;-79
2023/08/18 05:45:44;;;;;;;;;;;16.40;99.90;;;;;;5032444;28;19932;-79
2023/08/18 05:48:10;;;;;;;;;;;16.40;99.90;;;;;;5029531;28;19929;-79
2023/08/18 05:50:36;;;;;;;;;;;16.50;99.90;;;;;;5022140;28;19932;-79
2023/08/18 05:53:02;;;;;;;;;;;16.50;99.90;;;;;;5026309;28;19940;-79
2023/08/18 05:55:30;;;;;;;;;;;16.50;99.90;;;;;;5022954;28;19939;-79
2023/08/18 05:58:02;;;;;;;;;;;16.50;99.90;;;;;;5051093;28;20022;-79
2023/08/18 06:00:28;;;;;;;;;;;16.50;99.90;;;;;;5010987;28;20008;-80
2023/08/18 06:02:54;;;;;;;;;;;16.50;99.90;;;;;;5022108;28;19929;-79
2023/08/18 06:05:19;;;;;;;;;;;16.50;99.90;;;;;;5022295;28;19929;-80
2023/08/18 06:07:45;;;;;;;;;;;16.50;99.90;;;;;;5038041;28;20023;-79
2023/08/18 06:10:11;;;;;;;;;;;16.50;99.90;;;;;;5041534;28;19994;-79
2023/08/18 06:12:37;;;;;;;;;;;16.50;99.90;;;;;;5003076;28;20012;-79
2023/08/18 06:15:04;;;;;;;;;;;16.50;99.90;;;;;;5070841;28;20299;-79
2023/08/18 06:17:30;;;;;;;;;;;16.60;99.90;;;;;;5038990;28;19925;-79
2023/08/18 06:19:55;;;;;;;;;;;16.60;99.90;;;;;;5033578;28;19929;-79
2023/08/18 06:22:21;;;;;;;;;;;16.60;99.90;;;;;;5046772;28;19936;-79
2023/08/18 06:24:46;;;;;;;;;;;16.60;99.90;;;;;;5000042;28;19925;-79
2023/08/18 06:27:12;;;;;;;;;;;16.60;99.90;;;;;;5049804;28;19933;-79
2023/08/18 06:29:38;;;;;;;;;;;16.60;99.90;;;;;;5021895;28;19979;-80
2023/08/18 06:32:04;;;;;;;;;;;16.70;99.90;;;;;;5035377;28;19925;-79
2023/08/18 06:34:29;;;;;;;;;;;16.70;99.90;;;;;;5002801;28;19937;-79
2023/08/18 06:36:55;;;;;;;;;;;16.80;99.90;;;;;;5034813;28;20466;-79
2023/08/18 06:39:20;;;;;;;;;;;16.80;99.90;;;;;;5016924;28;19974;-79
2023/08/18 06:41:46;;;;;;;;;;;16.80;99.90;;;;;;5014346;28;19936;-79
2023/08/18 06:44:12;;;;;;;;;;;16.90;99.90;;;;;;5036210;28;19933;-79
2023/08/18 06:46:37;;;;;;;;;;;16.90;99.90;;;;;;5040178;28;19928;-79
2023/08/18 06:49:03;;;;;;;;;;;16.90;99.90;;;;;;5047350;28;19925;-80
2023/08/18 06:51:28;;;;;;;;;;;16.90;99.90;;;;;;5017701;28;19964;-80
2023/08/18 06:53:54;;;;;;;;;;;16.90;99.90;;;;;;5014713;28;19947;-79
2023/08/18 06:56:20;;;;;;;;;;;17.00;99.90;;;;;;5016350;28;20390;-79
2023/08/18 06:58:45;;;;;;;;;;;17.00;99.90;;;;;;5032498;28;21087;-79
2023/08/18 07:01:11;;;;;;;;;;;17.00;99.90;;;;;;5069841;28;19973;-79
2023/08/18 07:03:37;;;;;;;;;;;17.10;99.90;;;;;;5037803;28;19956;-79
2023/08/18 07:06:02;;;;;;;;;;;17.10;99.90;;;;;;5034962;28;19925;-79
2023/08/18 07:08:28;;;;;;;;;;;17.10;99.90;;;;;;5036724;28;20419;-79
2023/08/18 07:10:53;;;;;;;;;;;17.10;99.90;;;;;;5036748;28;19926;-79
2023/08/18 07:13:21;;;;;;;;;;;17.10;99.90;;;;;;5071129;28;20201;-79
2023/08/18 07:15:47;;;;;;;;;;;17.10;99.90;;;;;;5034616;28;19951;-79
2023/08/18 07:18:13;;;;;;;;;;;17.20;99.90;;;;;;5037268;28;19925;-79
2023/08/18 07:20:40;;;;;;;;;;;17.20;99.90;;;;;;5054100;28;19940;-79
2023/08/18 07:23:06;;;;;;;;;;;17.20;99.90;;;;;;5037415;28;20411;-79
2023/08/18 07:25:31;;;;;;;;;;;17.20;99.90;;;;;;5037147;28;19944;-79
2023/08/18 07:27:57;;;;;;;;;;;17.30;99.90;;;;;;5032081;28;19925;-79
2023/08/18 07:30:23;;;;;;;;;;;17.40;99.90;;;;;;5054834;28;19932;-79
2023/08/18 07:32:49;;;;;;;;;;;17.40;99.90;;;;;;5038259;28;20430;-79
2023/08/18 07:35:14;;;;;;;;;;;17.50;99.90;;;;;;5039150;28;19926;-79
2023/08/18 07:37:40;;;;;;;;;;;17.50;99.90;;;;;;5029751;28;19936;-79
2023/08/18 07:40:09;;;;;;;;;;;17.60;99.90;;;;;;5046253;28;19972;-79
2023/08/18 07:42:35;;;;;;;;;;;17.60;99.90;;;;;;5029013;28;19925;-79
2023/08/18 07:45:02;;;;;;;;;;;17.70;99.90;;;;;;5020154;28;19936;-79
2023/08/18 07:47:27;;;;;;;;;;;17.70;99.90;;;;;;5053927;28;19925;-80
2023/08/18 07:49:53;;;;;;;;;;;17.80;99.90;;;;;;5052763;28;19931;-79
2023/08/18 07:52:19;;;;;;;;;;;17.90;99.90;;;;;;5054507;28;19961;-80
2023/08/18 07:54:44;;;;;;;;;;;17.90;99.90;;;;;;5036656;28;19925;-79
2023/08/18 07:57:10;;;;;;;;;;;18.00;99.90;;;;;;5053419;28;19933;-79
2023/08/18 07:59:35;;;;;;;;;;;18.00;99.90;;;;;;5035885;28;19926;-81
2023/08/18 08:02:02;;;;;;;;;;;18.20;99.90;;;;;;4997369;28;19972;-80
2023/08/18 08:04:27;;;;;;;;;;;18.20;99.90;;;;;;5028611;28;20113;-81
2023/08/18 08:06:56;;;;;;;;;;;18.20;99.90;;;;;;5014865;28;19925;-80
2023/08/18 08:09:26;;;;;;;;;;;18.20;99.90;;;;;;5020258;28;19932;-79
2023/08/18 08:11:52;;;;;;;;;;;18.30;99.90;;;;;;5015188;28;19940;-84
2023/08/18 08:14:20;;;;;;;;;;;18.30;99.90;;;;;;5027935;28;20123;-84
2023/08/18 08:16:45;;;;;;;;;;;18.30;99.90;;;;;;5035268;28;19975;-83
2023/08/18 08:19:13;;;;;;;;;;;18.30;99.90;;;;;;5018643;28;19940;-84
2023/08/18 08:21:39;;;;;;;;;;;18.30;99.90;;;;;;5020538;28;20024;-84
2023/08/18 08:24:05;;;;;;;;;;;18.40;99.90;;;;;;5019959;28;19929;-84
2023/08/18 08:26:31;;;;;;;;;;;18.50;99.90;;;;;;5039617;28;19936;-84
2023/08/18 08:28:56;;;;;;;;;;;18.50;99.90;;;;;;5005762;28;20444;-84
2023/08/18 08:31:22;;;;;;;;;;;18.60;99.90;;;;;;5023718;28;20007;-84
2023/08/18 08:33:48;;;;;;;;;;;18.60;99.90;;;;;;5054631;28;19925;-84
2023/08/18 08:36:13;;;;;;;;;;;18.70;99.90;;;;;;5021329;28;19936;-85
2023/08/18 08:38:39;;;;;;;;;;;18.70;99.90;;;;;;5052763;28;19932;-85
2023/08/18 08:41:05;;;;;;;;;;;18.70;99.90;;;;;;5035994;28;19926;-84
2023/08/18 08:43:30;;;;;;;;;;;18.90;99.90;;;;;;5021302;28;20400;-84
2023/08/18 08:46:00;;;;;;;;;;;19.10;99.90;;;;;;5049785;28;20348;-84
2023/08/18 08:48:36;;;;;;;;;;;19.30;99.90;;;;;;5037827;28;19929;-84
2023/08/18 08:51:03;;;;;;;;;;;19.60;99.90;;;;;;5023222;28;19926;-84
2023/08/18 08:53:35;;;;;;;;;;;19.70;99.90;;;;;;5054496;28;20307;-84
2023/08/18 08:56:02;;;;;;;;;;;19.80;99.90;;;;;;5030281;28;20339;-85
2023/08/18 08:58:29;;;;;;;;;;;19.80;99.90;;;;;;5070033;28;19925;-84
2023/08/18 09:00:55;;;;;;;;;;;19.80;99.90;;;;;;5038886;28;19985;-84
2023/08/18 09:03:21;;;;;;;;;;;19.80;99.90;;;;;;5023820;28;19929;-84
2023/08/18 09:05:47;;;;;;;;;;;19.90;99.90;;;;;;5055682;28;19924;-84
2023/08/18 09:08:13;;;;;;;;;;;20.20;99.90;;;;;;5031943;28;19951;-84
2023/08/18 09:10:39;;;;;;;;;;;20.50;99.90;;;;;;5034949;28;19976;-84
2023/08/18 09:13:04;;;;;;;;;;;20.70;99.90;;;;;;5039834;28;19989;-84
2023/08/18 09:15:30;;;;;;;;;;;20.90;99.90;;;;;;5054933;28;19929;-84
2023/08/18 09:17:56;;;;;;;;;;;20.90;99.90;;;;;;5023624;28;19940;-84
2023/08/18 09:20:22;;;;;;;;;;;20.90;99.90;;;;;;5036542;28;20363;-84
2023/08/18 09:22:47;;;;;;;;;;;20.80;99.90;;;;;;5011725;28;20269;-84
2023/08/18 09:25:13;;;;;;;;;;;20.80;99.90;;;;;;5007812;28;19925;-84
2023/08/18 09:27:39;;;;;;;;;;;20.80;99.90;;;;;;5052026;28;20523;-84
2023/08/18 09:30:05;;;;;;;;;;;20.70;99.90;;;;;;5036204;28;19998;-84
2023/08/18 09:32:30;;;;;;;;;;;20.60;99.90;;;;;;5002315;28;20332;-85
2023/08/18 09:34:56;;;;;;;;;;;20.60;99.90;;;;;;5037195;28;19931;-84
2023/08/18 09:37:28;;;;;;;;;;;20.40;99.90;;;;;;4999928;28;19925;-84
2023/08/18 09:39:54;;;;;;;;;;;20.40;99.90;;;;;;5022829;28;19925;-84
2023/08/18 09:42:19;;;;;;;;;;;20.30;99.90;;;;;;5038338;28;19925;-84
2023/08/18 09:44:45;;;;;;;;;;;20.30;99.90;;;;;;5012172;28;20063;-84
2023/08/18 09:47:12;;;;;;;;;;;20.30;99.90;;;;;;5004279;28;19933;-84
2023/08/18 09:49:39;;;;;;;;;;;20.40;99.90;;;;;;5053737;28;19980;-84
2023/08/18 09:52:06;;;;;;;;;;;20.40;99.90;;;;;;5028356;28;19925;-84
2023/08/18 09:54:39;;;;;;;;;;;20.50;99.90;;;;;;5021374;28;19996;-84
2023/08/18 09:57:07;;;;;;;;;;;20.50;99.90;;;;;;5020967;28;20480;-84
2023/08/18 09:59:40;;;;;;;;;;;20.60;99.90;;;;;;5050558;28;19980;-83
2023/08/18 10:02:07;;;;;;;;;;;20.60;99.90;;;;;;5021125;28;19984;-84
2023/08/18 10:04:37;;;;;;;;;;;20.60;99.90;;;;;;5038254;28;19925;-84
2023/08/18 10:07:03;;;;;;;;;;;20.60;99.90;;;;;;5041057;28;19936;-84
2023/08/18 10:09:33;;;;;;;;;;;20.60;99.90;;;;;;5020782;28;19932;-84
2023/08/18 10:12:00;;;;;;;;;;;20.60;99.90;;;;;;5004642;28;19976;-83
2023/08/18 10:14:26;;;;;;;;;;;20.60;99.90;;;;;;5038925;28;20315;-83
2023/08/18 10:16:52;;;;;;;;;;;20.70;99.90;;;;;;5038521;28;19980;-83
2023/08/18 10:19:39;;;;;;;;;;;20.70;99.90;;;;;;5035739;28;20385;-84
2023/08/18 10:22:06;;;;;;;;;;;20.80;99.90;;;;;;5056114;28;20526;-84
2023/08/18 10:24:38;;;;;;;;;;;21.00;99.90;;;;;;5035459;28;20305;-84
2023/08/18 10:27:06;;;;;;;;;;;21.00;99.90;;;;;;5037664;28;19931;-84
2023/08/18 10:29:34;;;;;;;;;;;21.10;99.90;;;;;;5004346;28;20427;-84
2023/08/18 10:32:05;;;;;;;;;;;21.10;99.90;;;;;;5054872;28;19976;-84
2023/08/18 10:34:31;;;;;;;;;;;21.20;99.90;;;;;;5021993;28;19929;-84
2023/08/18 10:36:58;;;;;;;;;;;21.20;99.90;;;;;;5016532;28;19932;-85
2023/08/18 10:39:25;;;;;;;;;;;21.30;99.90;;;;;;5019852;28;20380;-84
2023/08/18 10:42:03;;;;;;;;;;;21.40;99.90;;;;;;5015937;28;19929;-84
2023/08/18 10:44:29;;;;;;;;;;;21.50;99.90;;;;;;5053108;28;19925;-84
2023/08/18 10:46:55;;;;;;;;;;;21.60;99.90;;;;;;5018940;28;19929;-84
2023/08/18 10:49:21;;;;;;;;;;;21.70;99.90;;;;;;5018291;28;19933;-84
2023/08/18 10:51:49;;;;;;;;;;;21.80;99.90;;;;;;5015061;28;19936;-84
2023/08/18 10:54:14;;;;;;;;;;;21.90;99.90;;;;;;5001186;28;19925;-84
2023/08/18 10:56:40;;;;;;;;;;;21.90;99.90;;;;;;5015967;28;19933;-85
2023/08/18 10:59:05;;;;;;;;;;;22.00;99.90;;;;;;5019633;28;19951;-85
2023/08/18 11:01:31;;;;;;;;;;;22.00;99.90;;;;;;5034440;28;19930;-84
2023/08/18 11:03:57;;;;;;;;;;;22.10;99.90;;;;;;5000645;28;20554;-83
2023/08/18 11:06:26;;;;;;;;;;;22.10;99.90;;;;;;5047494;28;19925;-79
2023/08/18 11:08:53;;;;;;;;;;;22.10;99.90;;;;;;5022215;28;19925;-79
2023/08/18 11:11:19;;;;;;;;;;;22.20;99.90;;;;;;5024318;28;20359;-79
2023/08/18 11:13:45;;;;;;;;;;;22.10;99.90;;;;;;5070260;28;19929;-79
2023/08/18 11:16:10;;;;;;;;;;;22.20;99.90;;;;;;5036650;28;19940;-79
2023/08/18 11:18:36;;;;;;;;;;;22.30;99.90;;;;;;5020862;28;19933;-79
2023/08/18 11:21:03;;;;;;;;;;;22.30;99.90;;;;;;5037874;28;19925;-79
2023/08/18 11:23:28;;;;;;;;;;;22.40;99.90;;;;;;5053529;28;19925;-79
2023/08/18 11:25:54;;;;;;;;;;;22.60;99.90;;;;;;5037190;28;19933;-79
2023/08/18 11:28:20;;;;;;;;;;;22.80;99.90;;;;;;5036888;28;19932;-80
2023/08/18 11:30:45;;;;;;;;;;;23.00;99.90;;;;;;5038580;28;20509;-79
2023/08/18 11:33:11;;;;;;;;;;;23.20;99.90;;;;;;5054038;28;19929;-79
2023/08/18 11:35:37;;;;;;;;;;;23.30;99.90;;;;;;5036127;28;19939;-80
2023/08/18 11:38:02;;;;;;;;;;;23.30;99.90;;;;;;5053790;28;19925;-80
2023/08/18 11:40:28;;;;;;;;;;;23.20;99.90;;;;;;5020455;28;20571;-79
2023/08/18 11:42:54;;;;;;;;;;;23.20;99.90;;;;;;5037603;28;19931;-80
2023/08/18 11:45:23;;;;;;;;;;;23.50;99.90;;;;;;5038723;28;19932;-81
2023/08/18 11:48:01;;;;;;;;;;;23.70;99.90;;;;;;5067863;28;19957;-80
2023/08/18 11:50:34;;;;;;;;;;;23.60;99.90;;;;;;5042586;28;20027;-79
2023/08/18 11:53:00;;;;;;;;;;;23.50;99.90;;;;;;5032538;28;19925;-80
2023/08/18 11:55:44;;;;;;;;;;;23.40;99.90;;;;;;5028741;28;19958;-80
2023/08/18 11:58:14;;;;;;;;;;;23.50;99.90;;;;;;5020397;28;21033;-80
2023/08/18 12:00:41;;;;;;;;;;;23.70;99.90;;;;;;5041892;28;19980;-80
2023/08/18 12:03:07;;;;;;;;;;;23.80;99.90;;;;;;5056158;28;19925;-77
2023/08/18 12:05:36;;;;;;;;;;;23.80;99.90;;;;;;5039315;28;19961;-77
2023/08/18 12:08:04;;;;;;;;;;;23.90;99.90;;;;;;5040435;28;20015;-77
2023/08/18 12:10:30;;;;;;;;;;;24.20;99.90;;;;;;5039396;28;19925;-77
2023/08/18 12:12:56;;;;;;;;;;;24.50;99.90;;;;;;5024773;28;19925;-79
2023/08/18 12:15:23;;;;;;;;;;;24.80;99.90;;;;;;5057004;28;19929;-80
2023/08/18 12:17:49;;;;;;;;;;;25.00;99.90;;;;;;5029120;28;19932;-80
2023/08/18 12:20:18;;;;;;;;;;;25.30;99.90;;;;;;5039889;28;20299;-80
2023/08/18 12:22:45;;;;;;;;;;;25.40;99.90;;;;;;5040424;28;20284;-80
2023/08/18 12:25:10;;;;;;;;;;;25.40;99.90;;;;;;5054719;28;19934;-80
2023/08/18 12:27:36;;;;;;;;;;;25.10;99.90;;;;;;5039455;28;19963;-80
2023/08/18 12:30:03;;;;;;;;;;;24.80;99.90;;;;;;5041310;28;19976;-80
2023/08/18 12:32:30;;;;;;;;;;;24.60;99.90;;;;;;5056907;28;19925;-80
2023/08/18 12:34:57;;;;;;;;;;;24.50;99.90;;;;;;5054992;28;19925;-80
2023/08/18 12:37:23;;;;;;;;;;;24.40;99.90;;;;;;5056988;28;20285;-80
2023/08/18 12:39:49;;;;;;;;;;;24.60;99.90;;;;;;5024421;28;19931;-80
2023/08/18 12:42:15;;;;;;;;;;;24.70;99.90;;;;;;5022573;28;19968;-80
2023/08/18 12:44:40;;;;;;;;;;;24.80;99.90;;;;;;5018663;28;19937;-80
2023/08/18 12:47:07;;;;;;;;;;;25.00;99.90;;;;;;5040552;28;19968;-80
2023/08/18 12:49:33;;;;;;;;;;;25.20;99.90;;;;;;5066603;28;19929;-80
2023/08/18 12:51:58;;;;;;;;;;;25.40;99.90;;;;;;5040524;28;19925;-79
2023/08/18 12:54:24;;;;;;;;;;;25.50;99.90;;;;;;5020115;28;19931;-80
2023/08/18 12:56:50;;;;;;;;;;;25.70;99.90;;;;;;5060112;28;19925;-79
2023/08/18 12:59:15;;;;;;;;;;;26.00;99.90;;;;;;5039238;28;19925;-79
2023/08/18 13:01:41;;;;;;;;;;;26.10;99.90;;;;;;5038206;28;19940;-79
2023/08/18 13:04:10;;;;;;;;;;;26.10;99.90;;;;;;5032498;28;19936;-79
2023/08/18 13:06:36;;;;;;;;;;;26.00;99.90;;;;;;5021422;28;19933;-79
2023/08/18 13:09:01;;;;;;;;;;;25.80;99.90;;;;;;5022254;28;19992;-79
2023/08/18 13:11:27;;;;;;;;;;;25.70;99.90;;;;;;5055276;28;19929;-79
2023/08/18 13:13:52;;;;;;;;;;;25.50;99.90;;;;;;5040158;28;19939;-80
2023/08/18 13:16:18;;;;;;;;;;;25.50;99.90;;;;;;5041158;28;20053;-79
2023/08/18 13:18:43;;;;;;;;;;;25.50;99.90;;;;;;5039461;28;20447;-79
2023/08/18 13:21:09;;;;;;;;;;;25.70;99.90;;;;;;5038570;28;19936;-80
2023/08/18 13:23:35;;;;;;;;;;;25.70;99.90;;;;;;5022580;28;19925;-79
2023/08/18 13:26:00;;;;;;;;;;;25.60;99.90;;;;;;5055781;28;19979;-79
2023/08/18 13:28:26;;;;;;;;;;;25.50;99.90;;;;;;5039503;28;19924;-79
2023/08/18 13:30:51;;;;;;;;;;;25.60;99.90;;;;;;5056451;28;19987;-80
2023/08/18 13:33:17;;;;;;;;;;;25.70;99.90;;;;;;5055438;28;19925;-79
2023/08/18 13:35:42;;;;;;;;;;;25.60;99.90;;;;;;5038399;28;19925;-79
2023/08/18 13:38:08;;;;;;;;;;;25.60;99.90;;;;;;5054447;28;19925;-85
2023/08/18 13:40:33;;;;;;;;;;;25.80;99.90;;;;;;5005488;28;19961;-86
2023/08/18 13:43:01;;;;;;;;;;;26.00;99.90;;;;;;5004713;28;19936;-86
2023/08/18 13:45:29;;;;;;;;;;;26.10;99.90;;;;;;5022206;28;19940;-85
2023/08/18 13:47:55;;;;;;;;;;;26.20;99.90;;;;;;5006168;28;19935;-85
2023/08/18 13:50:22;;;;;;;;;;;26.40;99.90;;;;;;5021732;28;20489;-85
2023/08/18 13:52:48;;;;;;;;;;;26.50;99.90;;;;;;5038783;28;19925;-85
2023/08/18 13:55:13;;;;;;;;;;;26.70;99.90;;;;;;5023017;28;19925;-86
2023/08/18 13:57:39;;;;;;;;;;;26.60;99.90;;;;;;5019960;28;19925;-86
2023/08/18 14:00:05;;;;;;;;;;;26.70;99.90;;;;;;5043943;28;19932;-86
2023/08/18 14:02:30;;;;;;;;;;;26.80;99.90;;;;;;5013820;28;19928;-86
2023/08/18 14:04:56;;;;;;;;;;;26.90;99.90;;;;;;5022741;28;19925;-86
2023/08/18 14:07:22;;;;;;;;;;;26.90;99.90;;;;;;5033146;28;19971;-85
2023/08/18 14:09:47;;;;;;;;;;;27.00;99.90;;;;;;5027663;28;20364;-86
2023/08/18 14:12:13;;;;;;;;;;;27.00;99.90;;;;;;5022696;28;19925;-86